Time;durP1;ratioP1;P1;durP2;ratioP2;P2;SDS_P1;SDS_P2;PMS_P1;PMS_P2;Temp;Humidity;BMP_temperature;BMP_pressure;BME280_temperature;BME280_humidity;BME280_pressure;Samples;Min_cycle;Max_cycle;Signal;HPM_P1;HPM_P2
2022/08/03 00:02:25;;;;;;;9.23;3.38;;;18.80;99.90;;;;;;5028823;28;20091;-86
2022/08/03 00:04:50;;;;;;;8.05;2.70;;;18.80;99.90;;;;;;5021707;28;20041;-85
2022/08/03 00:07:16;;;;;;;9.88;3.03;;;18.80;99.90;;;;;;5019495;28;20049;-85
2022/08/03 00:09:42;;;;;;;10.60;3.13;;;18.80;99.90;;;;;;5042237;28;20423;-86
2022/08/03 00:12:10;;;;;;;10.27;2.85;;;18.70;99.90;;;;;;5028320;28;20070;-86
2022/08/03 00:14:36;;;;;;;9.60;2.70;;;18.70;99.90;;;;;;5022484;28;20925;-85
2022/08/03 00:17:02;;;;;;;10.90;2.55;;;18.70;99.90;;;;;;5036149;28;20041;-85
2022/08/03 00:19:28;;;;;;;7.93;2.88;;;18.70;99.90;;;;;;5035275;28;20057;-86
2022/08/03 00:21:53;;;;;;;8.48;2.75;;;18.70;99.90;;;;;;5038084;28;20041;-86
2022/08/03 00:24:19;;;;;;;12.60;2.83;;;18.70;99.90;;;;;;5021600;28;20553;-85
2022/08/03 00:26:46;;;;;;;9.93;2.25;;;18.60;99.90;;;;;;5024556;28;20053;-85
2022/08/03 00:29:11;;;;;;;10.77;3.03;;;18.60;99.90;;;;;;5027321;28;20065;-85
2022/08/03 00:31:40;;;;;;;11.48;3.10;;;18.60;99.90;;;;;;5040575;28;20136;-86
2022/08/03 00:34:05;;;;;;;10.52;2.45;;;18.60;99.90;;;;;;5025443;28;20131;-85
2022/08/03 00:36:31;;;;;;;12.45;2.92;;;18.60;99.90;;;;;;5041860;28;20052;-86
2022/08/03 00:38:57;;;;;;;8.40;2.13;;;18.60;99.90;;;;;;5040225;28;20042;-85
2022/08/03 00:41:22;;;;;;;9.57;2.47;;;18.60;99.90;;;;;;5042217;28;20044;-85
2022/08/03 00:43:48;;;;;;;8.18;2.20;;;18.60;99.90;;;;;;5026821;28;20073;-86
2022/08/03 00:46:14;;;;;;;10.25;2.50;;;18.60;99.90;;;;;;5042718;28;20116;-85
2022/08/03 00:48:40;;;;;;;7.95;2.30;;;18.50;99.90;;;;;;5021065;28;20041;-86
2022/08/03 00:51:05;;;;;;;10.07;2.35;;;18.40;99.90;;;;;;5025418;28;20045;-85
2022/08/03 00:53:33;;;;;;;5.95;1.70;;;18.50;99.90;;;;;;5026518;28;20048;-86
2022/08/03 00:56:00;;;;;;;8.52;1.92;;;18.50;99.90;;;;;;5043827;28;20124;-85
2022/08/03 00:58:26;;;;;;;7.95;1.85;;;18.50;99.90;;;;;;5041156;28;20049;-85
2022/08/03 01:00:51;;;;;;;7.50;2.50;;;18.40;99.90;;;;;;5022666;28;20048;-85
2022/08/03 01:03:17;;;;;;;10.63;2.28;;;18.40;99.90;;;;;;5039754;28;20041;-86
2022/08/03 01:05:59;;;;;;;11.63;2.25;;;18.40;99.90;;;;;;5016395;28;20400;-86
2022/08/03 01:08:42;;;;;;;5.40;1.80;;;18.40;99.90;;;;;;5025476;28;20083;-86
2022/08/03 01:11:30;;;;;;;5.75;1.70;;;18.40;99.90;;;;;;5041256;28;20488;-86
2022/08/03 01:14:12;;;;;;;9.77;1.98;;;18.30;99.90;;;;;;5042032;28;20053;-86
2022/08/03 06:07:37;;;;;;;12.63;3.05;;;18.80;99.90;;;;;;6027080;23;20063;-96
2022/08/03 06:13:02;;;;;;;13.18;2.85;;;18.90;99.90;;;;;;1536012;23;20059;-91
2022/08/03 06:15:28;;;;;;;12.10;3.10;;;18.90;99.90;;;;;;4977620;23;20622;-91
2022/08/03 06:17:55;;;;;;;11.90;3.33;;;18.90;99.90;;;;;;4926094;29;20056;-91
2022/08/03 06:20:21;;;;;;;9.15;3.00;;;19.00;99.90;;;;;;4916296;29;20043;-89
2022/08/03 06:22:47;;;;;;;17.33;3.75;;;19.50;99.90;;;;;;4918039;29;20052;-93
2022/08/03 06:25:13;;;;;;;9.98;2.90;;;19.30;99.90;;;;;;4926981;29;20050;-96
2022/08/03 06:27:39;;;;;;;11.73;3.33;;;19.30;99.90;;;;;;4915785;29;20050;-95
2022/08/03 06:30:07;;;;;;;16.00;3.17;;;19.60;99.90;;;;;;4918081;29;20044;-92
2022/08/03 06:32:33;;;;;;;14.32;3.50;;;19.10;99.90;;;;;;4926589;29;20107;-93
2022/08/03 06:34:59;;;;;;;10.52;2.90;;;19.10;99.90;;;;;;4932829;29;20032;-94
2022/08/03 06:37:25;;;;;;;13.23;2.92;;;19.10;99.90;;;;;;4935215;29;20062;-92
2022/08/03 06:39:52;;;;;;;11.90;3.85;;;19.40;99.90;;;;;;4929448;29;20139;-92
2022/08/03 06:42:18;;;;;;;12.35;3.78;;;19.20;99.90;;;;;;4927587;29;20106;-91
2022/08/03 06:44:44;;;;;;;11.15;3.30;;;19.30;99.90;;;;;;4924275;29;20040;-93
2022/08/03 06:47:10;;;;;;;13.98;3.53;;;19.30;99.90;;;;;;4931018;29;20040;-92
2022/08/03 06:49:36;;;;;;;9.60;2.95;;;19.30;99.90;;;;;;4928374;29;20059;-93
2022/08/03 06:52:02;;;;;;;11.80;2.90;;;19.40;99.90;;;;;;4931581;29;20036;-92
2022/08/03 06:54:27;;;;;;;13.35;3.35;;;19.40;99.90;;;;;;4913800;29;20079;-94
2022/08/03 06:56:53;;;;;;;12.80;3.17;;;19.90;99.90;;;;;;4913706;29;20467;-93
2022/08/03 06:59:19;;;;;;;14.32;3.53;;;19.60;99.90;;;;;;4930936;29;20039;-93
2022/08/03 07:01:44;;;;;;;11.73;2.60;;;19.60;99.90;;;;;;4933620;29;20122;-93
2022/08/03 07:04:10;;;;;;;13.80;3.38;;;19.60;99.90;;;;;;4908268;29;20090;-93
2022/08/03 07:06:37;;;;;;;10.60;3.63;;;19.70;99.90;;;;;;4927386;29;20111;-94
2022/08/03 07:09:03;;;;;;;15.70;3.35;;;19.70;99.90;;;;;;4929960;29;20499;-93
2022/08/03 07:11:29;;;;;;;14.57;3.75;;;19.70;99.90;;;;;;4930703;29;20063;-93
2022/08/03 07:13:55;;;;;;;10.13;3.40;;;19.70;99.90;;;;;;4929695;29;20044;-94
2022/08/03 07:16:21;;;;;;;11.18;3.13;;;19.90;99.90;;;;;;4916795;29;20063;-93
2022/08/03 07:18:47;;;;;;;12.80;3.30;;;19.80;99.90;;;;;;4915653;29;20048;-94
2022/08/03 07:21:12;;;;;;;15.35;3.22;;;19.90;99.90;;;;;;4924228;29;20110;-95
2022/08/03 07:23:38;;;;;;;12.55;3.17;;;19.80;99.90;;;;;;4931323;29;20039;-94
2022/08/03 07:26:04;;;;;;;11.65;2.88;;;20.00;99.90;;;;;;4924410;29;20111;-95
2022/08/03 07:28:29;;;;;;;12.13;4.25;;;20.30;99.90;;;;;;4919010;29;20043;-93
2022/08/03 07:30:55;;;;;;;10.27;2.88;;;20.20;99.90;;;;;;4927596;29;20040;-94
2022/08/03 07:33:21;;;;;;;13.40;3.60;;;20.50;99.90;;;;;;4931994;29;20066;-94
2022/08/03 07:35:46;;;;;;;11.68;3.22;;;20.60;99.90;;;;;;4934454;29;20502;-94
2022/08/03 07:38:12;;;;;;;15.48;3.67;;;20.90;99.90;;;;;;4931635;29;20190;-95
2022/08/03 07:40:38;;;;;;;15.60;3.05;;;21.00;99.90;;;;;;4930323;29;20566;-95
2022/08/03 07:43:03;;;;;;;12.00;3.10;;;21.10;99.90;;;;;;4930986;29;20071;-93
2022/08/03 07:45:32;;;;;;;10.35;2.95;;;21.30;99.90;;;;;;4924833;29;20040;-93
2022/08/03 07:47:58;;;;;;;12.80;3.63;;;21.20;99.90;;;;;;4928773;29;20052;-93
2022/08/03 07:50:24;;;;;;;10.77;3.00;;;21.40;99.90;;;;;;4931024;29;20055;-94
2022/08/03 07:52:51;;;;;;;13.60;3.03;;;21.50;99.90;;;;;;4930709;29;20052;-91
2022/08/03 07:55:24;;;;;;;12.90;2.50;;;21.70;99.90;;;;;;4905824;29;20114;-92
2022/08/03 07:58:04;;;;;;;16.38;3.70;;;21.80;99.90;;;;;;4929884;29;20044;-92
2022/08/03 08:00:30;;;;;;;10.23;2.92;;;21.90;99.90;;;;;;4912586;29;20101;-93
2022/08/03 08:02:56;;;;;;;15.63;3.33;;;22.00;99.90;;;;;;4913299;29;20040;-93
2022/08/03 08:05:23;;;;;;;12.07;2.83;;;22.10;99.90;;;;;;4932048;29;20130;-93
2022/08/03 08:07:49;;;;;;;12.13;2.90;;;22.20;99.90;;;;;;4912055;29;20151;-93
2022/08/03 08:10:15;;;;;;;9.60;2.83;;;22.30;99.90;;;;;;4930829;29;20126;-94
2022/08/03 08:12:41;;;;;;;12.88;3.33;;;22.40;99.90;;;;;;4926481;29;20477;-92
2022/08/03 08:15:07;;;;;;;12.13;3.20;;;22.40;99.90;;;;;;4926775;29;20138;-91
2022/08/03 08:17:43;;;;;;;16.27;3.08;;;22.50;99.90;;;;;;4925535;29;20059;-92
2022/08/03 08:20:14;;;;;;;12.18;3.15;;;22.60;99.90;;;;;;4928351;29;20070;-91
2022/08/03 08:22:39;;;;;;;12.70;2.55;;;22.60;99.90;;;;;;4911310;29;20066;-93
2022/08/03 08:25:05;;;;;;;9.80;2.55;;;22.70;99.90;;;;;;4910649;29;20487;-93
2022/08/03 08:27:31;;;;;;;13.77;3.22;;;22.80;99.90;;;;;;4926971;29;20063;-93
2022/08/03 08:29:56;;;;;;;10.57;3.10;;;22.90;99.90;;;;;;4928925;29;20046;-93
2022/08/03 08:32:22;;;;;;;10.73;2.47;;;23.00;99.90;;;;;;4931129;29;20102;-93
2022/08/03 08:34:48;;;;;;;12.18;3.22;;;23.10;99.90;;;;;;4918407;29;20063;-92
2022/08/03 08:37:13;;;;;;;12.25;2.75;;;23.10;99.90;;;;;;4930041;29;20059;-92
2022/08/03 08:39:39;;;;;;;9.90;2.42;;;23.30;99.90;;;;;;4927485;29;20110;-93
2022/08/03 08:42:05;;;;;;;10.32;2.40;;;23.30;99.90;;;;;;4928331;29;20476;-91
2022/08/03 08:44:30;;;;;;;15.25;3.10;;;23.40;99.90;;;;;;4916213;29;20122;-92
2022/08/03 08:47:00;;;;;;;11.00;3.13;;;23.50;99.90;;;;;;4925630;29;20040;-93
2022/08/03 08:49:28;;;;;;;12.00;2.83;;;23.50;99.90;;;;;;4922674;29;20123;-92
2022/08/03 08:51:55;;;;;;;9.05;2.58;;;23.60;99.90;;;;;;4924099;29;20070;-93
2022/08/03 08:54:22;;;;;;;11.23;3.28;;;23.70;99.90;;;;;;4924843;29;20044;-93
2022/08/03 08:56:50;;;;;;;10.00;2.40;;;23.80;99.90;;;;;;4928006;29;20562;-94
2022/08/03 08:59:17;;;;;;;12.43;3.00;;;23.80;99.90;;;;;;4928506;29;20119;-91
2022/08/03 09:01:42;;;;;;;12.57;2.83;;;23.90;99.90;;;;;;4927246;29;20043;-93
2022/08/03 09:04:08;;;;;;;9.32;2.97;;;23.90;99.90;;;;;;4929456;29;20048;-94
2022/08/03 09:06:34;;;;;;;12.35;3.10;;;24.10;99.90;;;;;;4929736;29;20043;-94
2022/08/03 09:09:00;;;;;;;12.30;2.67;;;24.20;99.90;;;;;;4930243;29;20043;-95
2022/08/03 09:11:26;;;;;;;9.05;2.42;;;24.40;99.90;;;;;;4933522;29;20051;-94
2022/08/03 09:13:57;;;;;;;11.38;2.78;;;24.40;99.90;;;;;;4932276;29;20155;-93
2022/08/03 09:16:33;;;;;;;11.25;2.58;;;24.80;99.90;;;;;;5301189;23;20065;-96
2022/08/03 09:50:07;;;;;;;10.73;2.88;;;25.60;99.90;;;;;;5371316;23;20035;-92
2022/08/03 09:52:37;;;;;;;13.98;2.83;;;25.60;99.90;;;;;;4952902;28;20072;-93
2022/08/03 09:55:12;;;;;;;12.15;2.85;;;26.60;99.90;;;;;;4957476;29;20055;-93
2022/08/03 09:57:39;;;;;;;13.25;2.83;;;25.50;99.90;;;;;;4958764;29;20050;-93
2022/08/03 10:00:16;;;;;;;7.90;2.63;;;25.60;99.90;;;;;;4949766;28;20047;-93
2022/08/03 10:02:45;;;;;;;6.68;2.03;;;25.60;99.90;;;;;;4943368;29;20078;-94
2022/08/03 10:05:12;;;;;;;14.70;2.92;;;25.60;99.90;;;;;;4942543;29;20043;-93
2022/08/03 10:07:44;;;;;;;10.25;2.63;;;25.80;99.90;;;;;;4964896;28;20509;-93
2022/08/03 10:10:10;;;;;;;7.35;2.47;;;25.90;99.90;;;;;;4965589;28;20042;-94
2022/08/03 10:12:37;;;;;;;14.98;2.42;;;26.00;99.90;;;;;;4963487;29;20040;-93
2022/08/03 10:15:05;;;;;;;7.07;2.15;;;26.30;99.90;;;;;;4943008;29;20071;-93
2022/08/03 10:17:33;;;;;;;9.55;2.60;;;26.20;99.90;;;;;;4959019;28;20051;-94
2022/08/03 10:19:59;;;;;;;9.40;2.20;;;26.30;99.90;;;;;;4959261;29;20099;-94
2022/08/03 10:25:52;;;;;;;9.98;2.63;;;26.40;99.90;;;;;;4955003;28;20036;-94
2022/08/03 10:28:20;;;;;;;14.68;2.90;;;26.60;99.90;;;;;;4956589;29;20486;-96
2022/08/03 10:30:49;;;;;;;10.18;2.40;;;26.90;99.90;;;;;;4946547;28;20502;-93
2022/08/03 10:33:19;;;;;;;9.60;2.15;;;26.80;99.90;;;;;;4948348;28;20047;-92
2022/08/03 10:35:49;;;;;;;9.98;2.33;;;26.90;99.90;;;;;;4951066;28;20819;-92
2022/08/03 10:38:22;;;;;;;14.52;2.33;;;27.00;99.90;;;;;;4937582;29;20051;-93
2022/08/03 10:40:52;;;;;;;6.87;2.03;;;27.00;99.90;;;;;;4940591;28;20054;-93
2022/08/03 10:43:26;;;;;;;8.95;2.08;;;27.10;99.90;;;;;;4945280;29;20047;-93
2022/08/03 10:45:51;;;;;;;9.88;2.40;;;27.00;99.90;;;;;;4939058;28;20387;-93
2022/08/03 10:48:18;;;;;;;11.02;2.65;;;26.90;99.90;;;;;;4942956;28;20043;-96
2022/08/03 10:50:45;;;;;;;13.52;2.70;;;26.90;99.90;;;;;;4935750;28;20044;-95
2022/08/03 10:53:11;;;;;;;8.85;2.17;;;26.90;99.90;;;;;;4940096;28;20093;-96
2022/08/03 10:58:35;;;;;;;14.32;2.67;;;26.90;99.90;;;;;;5788696;23;20088;-96
2022/08/03 11:03:53;;;;;;;9.63;2.35;;;26.80;99.90;;;;;;5758759;23;20035;-95
2022/08/03 11:06:24;;;;;;;9.70;2.55;;;26.70;99.90;;;;;;4925584;29;20093;-96
2022/08/03 11:09:19;;;;;;;13.35;3.15;;;26.70;99.90;;;;;;4931605;29;20035;-96
2022/08/03 11:11:47;;;;;;;15.23;2.80;;;26.60;99.90;;;;;;4920364;29;20060;-96
2022/08/03 11:14:22;;;;;;;8.55;2.42;;;26.60;99.90;;;;;;4925682;29;20123;-96
2022/08/03 11:16:51;;;;;;;11.80;3.05;;;26.50;99.90;;;;;;4938718;29;20043;-96
2022/08/03 11:19:26;;;;;;;14.73;2.65;;;26.50;99.90;;;;;;4924112;29;20044;-96
2022/08/03 11:21:53;;;;;;;13.32;2.60;;;26.40;99.90;;;;;;4933586;29;20360;-96
2022/08/03 11:24:42;;;;;;;11.13;2.65;;;26.40;99.90;;;;;;4942319;29;20047;-96
2022/08/03 11:27:17;;;;;;;11.93;2.53;;;26.50;99.90;;;;;;4955938;28;20059;-96
2022/08/03 11:30:08;;;;;;;14.10;2.90;;;26.50;99.90;;;;;;5338459;23;20032;-96
2022/08/03 11:32:36;;;;;;;14.65;2.72;;;26.70;99.90;;;;;;4930176;29;20051;-96
2022/08/03 11:35:24;;;;;;;13.50;3.25;;;26.80;99.90;;;;;;4942319;29;20048;-96
2022/08/03 11:37:56;;;;;;;11.80;2.95;;;26.90;99.90;;;;;;4954787;29;20054;-96
2022/08/03 11:40:32;;;;;;;12.32;3.10;;;27.00;99.90;;;;;;4943524;29;20039;-96
2022/08/03 11:42:58;;;;;;;13.70;2.70;;;27.10;99.90;;;;;;4944720;29;20039;-96
2022/08/03 11:45:24;;;;;;;18.38;3.10;;;27.30;99.90;;;;;;4950378;29;20071;-96
2022/08/03 11:47:53;;;;;;;11.95;2.67;;;27.40;99.90;;;;;;4934718;29;20159;-95
2022/08/03 11:50:20;;;;;;;12.90;3.05;;;27.60;99.90;;;;;;4959611;23;20436;-95
2022/08/03 11:52:47;;;;;;;14.05;2.47;;;27.70;99.90;;;;;;4947151;29;20058;-96
2022/08/03 11:55:14;;;;;;;15.48;3.13;;;27.80;99.90;;;;;;4932967;29;20055;-93
2022/08/03 11:57:40;;;;;;;15.60;3.05;;;28.00;99.90;;;;;;4917815;29;20056;-93
2022/08/03 12:00:29;;;;;;;14.75;2.90;;;28.00;99.90;;;;;;4912911;29;20051;-95
2022/08/03 12:02:56;;;;;;;16.58;2.97;;;28.20;99.90;;;;;;4924621;29;20044;-94
2022/08/03 12:05:42;;;;;;;13.68;2.90;;;28.30;99.90;;;;;;4921553;29;20453;-95
2022/08/03 12:08:10;;;;;;;16.95;3.03;;;28.40;99.90;;;;;;4915421;29;20044;-95
2022/08/03 12:10:37;;;;;;;14.55;3.60;;;28.50;99.90;;;;;;4925772;29;20036;-95
2022/08/03 12:13:10;;;;;;;14.23;3.80;;;28.70;99.90;;;;;;4926367;29;20075;-95
2022/08/03 12:15:37;;;;;;;15.73;2.85;;;28.80;99.90;;;;;;4928055;29;20047;-95
2022/08/03 12:18:11;;;;;;;15.93;3.10;;;28.90;99.90;;;;;;4905027;29;20044;-95
2022/08/03 12:20:36;;;;;;;15.45;3.40;;;28.90;99.90;;;;;;4922040;29;20039;-96
2022/08/03 12:23:05;;;;;;;17.73;2.50;;;29.00;99.90;;;;;;4926433;29;20071;-96
2022/08/03 12:25:33;;;;;;;12.40;2.90;;;29.00;99.90;;;;;;4923266;29;20052;-92
2022/08/03 12:28:18;;;;;;;17.58;3.08;;;29.10;99.90;;;;;;4917023;29;20044;-93
2022/08/03 12:30:50;;;;;;;13.60;2.95;;;29.10;99.90;;;;;;4927736;29;20036;-96
2022/08/03 12:33:18;;;;;;;17.63;3.22;;;29.20;99.90;;;;;;4926768;29;20052;-96
2022/08/03 12:35:45;;;;;;;12.60;2.67;;;29.20;99.90;;;;;;4909992;29;20048;-95
2022/08/03 12:38:11;;;;;;;11.20;2.58;;;29.30;99.90;;;;;;4932891;29;20500;-96
2022/08/03 12:40:37;;;;;;;19.65;3.13;;;29.40;99.90;;;;;;4936666;29;20048;-96
2022/08/03 12:43:11;;;;;;;14.43;2.60;;;29.50;99.70;;;;;;4922217;29;20047;-96
2022/08/03 12:45:36;;;;;;;13.95;2.53;;;29.60;99.10;;;;;;4930366;29;20048;-95
2022/08/03 12:48:07;;;;;;;17.23;3.10;;;29.60;98.20;;;;;;4925004;29;20408;-95
2022/08/03 12:50:34;;;;;;;17.10;2.88;;;29.70;98.20;;;;;;4941634;29;20120;-96
2022/08/03 12:53:03;;;;;;;18.17;2.85;;;29.70;98.60;;;;;;4933563;29;20126;-95
2022/08/03 12:55:35;;;;;;;15.43;3.20;;;29.70;98.30;;;;;;4918375;29;20048;-93
2022/08/03 12:58:06;;;;;;;11.30;2.55;;;29.80;98.50;;;;;;4922675;29;20561;-96
2022/08/03 13:00:32;;;;;;;16.67;2.75;;;29.80;97.60;;;;;;4937836;29;20090;-95
2022/08/03 13:03:07;;;;;;;14.15;3.28;;;29.90;97.50;;;;;;4932972;29;20066;-96
2022/08/03 13:05:45;;;;;;;10.02;2.45;;;29.90;97.40;;;;;;4920120;29;20036;-96
2022/08/03 13:08:22;;;;;;;16.42;2.65;;;29.90;96.70;;;;;;4915520;29;20048;-96
2022/08/03 13:10:48;;;;;;;12.48;3.05;;;29.90;96.60;;;;;;4939067;29;20051;-96
2022/08/03 13:13:14;;;;;;;14.45;2.15;;;30.00;96.70;;;;;;4930950;29;20043;-96
2022/08/03 13:15:39;;;;;;;10.18;2.17;;;30.10;96.40;;;;;;4942547;29;20039;-96
2022/08/03 13:18:05;;;;;;;12.18;2.55;;;30.10;95.60;;;;;;4929427;29;20044;-96
2022/08/03 13:20:31;;;;;;;15.98;2.20;;;30.20;95.70;;;;;;4936356;29;20044;-96
2022/08/03 13:22:56;;;;;;;11.95;2.22;;;30.20;95.30;;;;;;4929417;29;20504;-95
2022/08/03 13:25:22;;;;;;;9.75;1.85;;;30.20;94.90;;;;;;4925361;29;20048;-95
2022/08/03 13:27:48;;;;;;;15.02;2.63;;;30.30;94.90;;;;;;4929390;29;20119;-96
2022/08/03 13:30:14;;;;;;;11.85;2.30;;;30.30;94.80;;;;;;4926638;29;20145;-95
2022/08/03 13:32:40;;;;;;;10.85;2.38;;;30.30;94.60;;;;;;4927908;29;20063;-94
2022/08/03 13:35:07;;;;;;;13.40;2.45;;;30.30;94.50;;;;;;4928989;28;20036;-96
2022/08/03 13:37:33;;;;;;;14.82;2.33;;;30.30;94.60;;;;;;4929202;29;20036;-96
2022/08/03 13:40:00;;;;;;;17.67;3.35;;;30.30;94.70;;;;;;4924352;29;20047;-96
2022/08/03 13:42:30;;;;;;;10.82;2.42;;;30.40;94.70;;;;;;4936165;29;20035;-96
2022/08/03 13:44:56;;;;;;;10.63;2.35;;;30.40;94.60;;;;;;4936191;29;20046;-96
2022/08/03 13:47:22;;;;;;;9.32;2.47;;;30.40;94.60;;;;;;4932609;29;20079;-96
2022/08/03 13:49:50;;;;;;;13.57;2.70;;;30.40;94.80;;;;;;4941717;29;20125;-96
2022/08/03 13:52:15;;;;;;;14.30;2.60;;;30.40;94.50;;;;;;4942353;29;20063;-96
2022/08/03 13:54:41;;;;;;;12.25;2.95;;;30.40;94.70;;;;;;4949355;29;20040;-96
2022/08/03 13:57:07;;;;;;;9.77;2.45;;;30.40;95.00;;;;;;4936928;29;20048;-96
2022/08/03 13:59:33;;;;;;;11.63;2.60;;;30.40;95.40;;;;;;4947329;29;20047;-96
2022/08/03 14:01:59;;;;;;;12.25;2.78;;;30.40;95.10;;;;;;4947242;29;20047;-96
2022/08/03 14:04:24;;;;;;;12.55;2.80;;;30.40;94.80;;;;;;4915734;29;20044;-92
2022/08/03 14:06:50;;;;;;;13.63;2.65;;;30.40;94.80;;;;;;4928015;29;20044;-93
2022/08/03 14:09:16;;;;;;;15.30;2.25;;;30.40;95.00;;;;;;4929209;29;20051;-94
2022/08/03 14:11:42;;;;;;;14.23;2.83;;;30.50;95.40;;;;;;4928208;29;20123;-93
2022/08/03 14:14:08;;;;;;;12.13;2.70;;;30.60;95.10;;;;;;4918259;29;20052;-96
2022/08/03 14:16:35;;;;;;;13.73;2.88;;;30.60;95.10;;;;;;4928702;29;20092;-93
2022/08/03 14:19:01;;;;;;;7.13;2.35;;;30.70;94.80;;;;;;4931854;29;20518;-94
2022/08/03 14:21:26;;;;;;;11.65;3.00;;;30.60;94.70;;;;;;4936088;29;20048;-94
2022/08/03 14:23:52;;;;;;;12.85;2.67;;;30.60;94.50;;;;;;4928148;29;20958;-94
2022/08/03 14:26:19;;;;;;;12.00;2.47;;;30.70;94.30;;;;;;4930554;29;20082;-93
2022/08/03 14:28:44;;;;;;;9.85;2.50;;;30.70;94.20;;;;;;4922542;29;20404;-93
2022/08/03 14:31:10;;;;;;;8.90;2.28;;;30.80;93.50;;;;;;4930820;29;20044;-91
2022/08/03 14:33:36;;;;;;;11.93;2.60;;;30.70;93.20;;;;;;4927166;29;20044;-93
2022/08/03 14:36:05;;;;;;;12.63;2.53;;;30.70;92.90;;;;;;4930007;28;20044;-95
2022/08/03 14:38:36;;;;;;;13.55;2.45;;;30.70;92.90;;;;;;4939231;29;20047;-93
2022/08/03 14:41:03;;;;;;;12.43;3.05;;;30.70;93.00;;;;;;4938646;29;20091;-94
2022/08/03 14:43:32;;;;;;;10.55;2.20;;;30.60;93.00;;;;;;4938122;29;20054;-94
2022/08/03 14:45:58;;;;;;;8.10;2.40;;;30.60;93.10;;;;;;4938319;29;20044;-94
2022/08/03 14:48:45;;;;;;;9.55;2.85;;;30.70;93.10;;;;;;4940045;29;20040;-94
2022/08/03 14:51:14;;;;;;;10.02;2.78;;;30.70;92.40;;;;;;4937156;29;20119;-94
2022/08/03 14:54:08;;;;;;;9.82;2.80;;;30.60;92.70;;;;;;4935559;29;20097;-94
2022/08/03 14:56:34;;;;;;;9.02;2.55;;;30.50;92.50;;;;;;4942814;29;20043;-95
2022/08/03 14:59:06;;;;;;;9.77;2.75;;;30.40;92.70;;;;;;4939397;29;20047;-94
2022/08/03 15:02:09;;;;;;;7.68;2.60;;;30.40;92.80;;;;;;4946225;29;20126;-94
2022/08/03 15:04:55;;;;;;;10.82;3.20;;;30.30;92.60;;;;;;4932211;29;20051;-92
2022/08/03 15:07:48;;;;;;;11.57;3.55;;;30.10;93.00;;;;;;4924627;29;20056;-94
2022/08/03 15:10:14;;;;;;;9.27;2.60;;;30.10;93.30;;;;;;4944034;29;20071;-94
2022/08/03 15:13:08;;;;;;;9.95;2.65;;;30.10;93.10;;;;;;4918260;29;20052;-93
2022/08/03 15:15:39;;;;;;;10.63;3.13;;;30.00;92.90;;;;;;4934783;29;20042;-94
2022/08/03 15:18:05;;;;;;;14.38;3.40;;;30.00;93.10;;;;;;4936361;29;20048;-93
2022/08/03 15:20:31;;;;;;;9.88;2.60;;;29.90;93.50;;;;;;4940768;29;20147;-96
2022/08/03 15:23:14;;;;;;;11.02;3.20;;;29.90;93.50;;;;;;4941419;29;20055;-93
2022/08/03 15:25:45;;;;;;;9.68;3.17;;;29.80;93.60;;;;;;4926915;29;20047;-94
2022/08/03 15:28:12;;;;;;;8.55;3.00;;;29.70;93.40;;;;;;4923304;29;20060;-95
2022/08/03 15:30:38;;;;;;;10.30;4.05;;;29.60;93.90;;;;;;4921659;29;20039;-92
2022/08/03 15:33:05;;;;;;;8.85;3.13;;;29.50;94.00;;;;;;4926744;29;20474;-93
2022/08/03 15:35:46;;;;;;;11.63;3.58;;;29.50;94.10;;;;;;4921432;29;20032;-94
2022/08/03 15:38:43;;;;;;;14.00;3.58;;;29.50;93.70;;;;;;4937194;29;20048;-93
2022/08/03 15:41:09;;;;;;;14.52;4.25;;;29.30;94.00;;;;;;4938454;29;20086;-94
2022/08/03 15:43:46;;;;;;;11.95;3.85;;;29.30;94.00;;;;;;4921978;29;20092;-94
2022/08/03 15:46:13;;;;;;;8.20;3.70;;;29.20;94.00;;;;;;4928913;29;20058;-93
2022/08/03 15:48:43;;;;;;;15.18;4.18;;;29.20;93.90;;;;;;4943886;29;20044;-93
2022/08/03 15:51:09;;;;;;;14.77;4.30;;;29.10;93.60;;;;;;4929570;29;20047;-95
2022/08/03 15:53:56;;;;;;;10.82;4.28;;;29.10;93.80;;;;;;4940031;29;20118;-94
2022/08/03 15:56:22;;;;;;;10.20;4.00;;;29.00;94.10;;;;;;4922796;29;20056;-93
2022/08/03 15:58:47;;;;;;;9.82;3.92;;;29.10;94.10;;;;;;4925784;29;20130;-92
2022/08/03 16:01:13;;;;;;;11.50;4.65;;;29.10;93.90;;;;;;4906342;29;20131;-92
2022/08/03 16:03:39;;;;;;;11.02;3.97;;;29.10;93.90;;;;;;4906031;29;20048;-92
2022/08/03 16:06:06;;;;;;;9.73;3.95;;;29.00;94.10;;;;;;4919075;29;20468;-92
2022/08/03 16:08:33;;;;;;;13.57;3.90;;;28.90;94.10;;;;;;4919002;29;20055;-92
2022/08/03 16:10:59;;;;;;;10.85;3.90;;;28.80;93.70;;;;;;4917224;29;20044;-92
2022/08/03 16:13:25;;;;;;;12.27;4.15;;;28.70;93.80;;;;;;4924955;29;20055;-92
2022/08/03 16:15:51;;;;;;;9.68;4.22;;;28.70;94.00;;;;;;4906793;29;20127;-92
2022/08/03 16:18:17;;;;;;;14.05;4.18;;;28.60;94.20;;;;;;4920932;29;20143;-92
2022/08/03 16:20:46;;;;;;;12.00;4.13;;;28.60;94.00;;;;;;4922491;29;20394;-92
2022/08/03 16:23:14;;;;;;;11.98;3.80;;;28.60;94.20;;;;;;4919856;29;20091;-93
2022/08/03 16:25:40;;;;;;;12.15;3.72;;;28.50;94.00;;;;;;4918871;29;20110;-93
2022/08/03 16:28:07;;;;;;;9.73;3.63;;;28.50;94.10;;;;;;4921450;29;20154;-92
2022/08/03 16:33:08;;;;;;;12.52;3.25;;;28.40;93.70;;;;;;5677495;23;20022;-96
2022/08/03 16:35:33;;;;;;;10.32;3.15;;;28.30;93.60;;;;;;4921016;29;20492;-95
2022/08/03 16:37:59;;;;;;;13.30;3.90;;;28.30;93.70;;;;;;4921535;29;20040;-89
2022/08/03 16:40:25;;;;;;;10.68;3.58;;;28.30;93.90;;;;;;4922251;29;20066;-89
2022/08/03 16:42:51;;;;;;;12.80;3.03;;;28.30;94.00;;;;;;4920722;29;20036;-89
2022/08/03 16:45:17;;;;;;;10.88;3.05;;;28.30;93.70;;;;;;4925503;29;20048;-88
2022/08/03 16:47:42;;;;;;;10.40;2.78;;;28.20;93.60;;;;;;4905410;29;20131;-88
2022/08/03 16:50:08;;;;;;;6.20;2.80;;;28.20;93.40;;;;;;4922747;29;20055;-88
2022/08/03 16:52:35;;;;;;;7.07;2.58;;;28.10;93.40;;;;;;4922933;29;20538;-88
2022/08/03 16:55:01;;;;;;;12.05;2.55;;;28.10;93.40;;;;;;4923586;29;20056;-90
2022/08/03 16:57:26;;;;;;;11.07;2.28;;;27.90;93.40;;;;;;4926048;29;20074;-89
2022/08/03 16:59:52;;;;;;;11.07;2.60;;;28.00;93.60;;;;;;4926803;29;20047;-88
2022/08/03 17:02:24;;;;;;;11.32;2.40;;;27.80;93.80;;;;;;4924191;29;20070;-90
2022/08/03 17:04:52;;;;;;;10.52;2.28;;;27.80;94.00;;;;;;4932355;29;20068;-90
2022/08/03 17:07:18;;;;;;;6.88;2.08;;;27.70;94.00;;;;;;4930637;29;20516;-90
2022/08/03 17:09:44;;;;;;;9.93;3.60;;;27.70;94.20;;;;;;4926857;29;20049;-89
2022/08/03 17:12:10;;;;;;;12.25;5.03;;;27.70;94.30;;;;;;4929446;29;20475;-90
2022/08/03 17:14:36;;;;;;;18.33;4.43;;;27.60;94.40;;;;;;4939417;28;20056;-88
2022/08/03 17:17:04;;;;;;;10.75;2.33;;;27.60;94.40;;;;;;4925645;29;20055;-87
2022/08/03 17:19:33;;;;;;;8.20;2.40;;;27.50;94.40;;;;;;4928792;29;20051;-87
2022/08/03 17:22:12;;;;;;;7.80;2.30;;;27.40;94.50;;;;;;4929048;29;20066;-86
2022/08/03 17:24:48;;;;;;;7.88;2.10;;;27.40;94.80;;;;;;4925772;29;20051;-89
2022/08/03 17:27:18;;;;;;;5.53;2.03;;;27.40;95.00;;;;;;4926078;29;20048;-89
2022/08/03 17:29:47;;;;;;;7.70;1.80;;;27.30;94.90;;;;;;4929209;29;20050;-89
2022/08/03 17:32:16;;;;;;;7.65;2.00;;;27.30;95.10;;;;;;4930521;29;20147;-88
2022/08/03 17:34:47;;;;;;;7.70;1.80;;;27.30;95.00;;;;;;4928924;29;21462;-87
2022/08/03 17:37:14;;;;;;;8.13;1.80;;;27.30;95.20;;;;;;4928331;29;20071;-89
2022/08/03 17:39:41;;;;;;;6.70;1.65;;;27.20;95.20;;;;;;4898522;29;20507;-88
2022/08/03 17:42:08;;;;;;;7.43;2.03;;;27.20;95.10;;;;;;4879808;29;20156;-88
2022/08/03 17:44:37;;;;;;;10.15;1.80;;;27.10;95.20;;;;;;4909615;29;20099;-90
2022/08/03 17:47:04;;;;;;;8.13;1.92;;;27.10;95.30;;;;;;4885274;29;20041;-90
2022/08/03 17:49:30;;;;;;;7.18;1.75;;;27.00;95.20;;;;;;4869687;29;20045;-89
2022/08/03 17:52:01;;;;;;;8.23;1.70;;;27.00;95.10;;;;;;4894829;29;20040;-88
2022/08/03 17:54:47;;;;;;;10.07;1.92;;;27.00;95.10;;;;;;4887911;29;20041;-89
2022/08/03 17:57:37;;;;;;;9.07;1.75;;;26.90;95.10;;;;;;4882416;29;20059;-90
2022/08/03 18:03:17;;;;;;;8.23;1.83;;;26.90;95.50;;;;;;4887722;29;20504;-89
2022/08/03 18:05:51;;;;;;;9.00;2.03;;;26.80;96.20;;;;;;4918730;29;20060;-88
2022/08/03 18:08:37;;;;;;;7.80;1.98;;;26.80;96.40;;;;;;4932992;29;20048;-91
2022/08/03 18:11:15;;;;;;;8.63;2.13;;;26.80;96.20;;;;;;5133566;23;20019;-91
2022/08/03 18:14:38;;;;;;;11.27;2.28;;;26.60;96.50;;;;;;4845562;29;20082;-86
2022/08/03 18:17:47;;;;;;;8.20;2.03;;;26.80;96.30;;;;;;4863394;29;20049;-85
2022/08/03 18:20:35;;;;;;;10.18;2.50;;;26.60;96.30;;;;;;4856621;29;20046;-87
2022/08/03 18:24:10;;;;;;;9.80;1.70;;;26.50;96.70;;;;;;4848338;29;20099;-86
2022/08/03 18:27:15;;;;;;;7.33;1.73;;;26.50;96.60;;;;;;4844161;29;20498;-86
2022/08/03 18:30:24;;;;;;;9.30;1.65;;;26.30;96.40;;;;;;4859166;29;20590;-86
2022/08/03 18:35:59;;;;;;;5.03;1.45;;;26.20;96.50;;;;;;4855383;29;20074;-86
2022/08/03 18:38:38;;;;;;;7.38;1.60;;;26.20;96.80;;;;;;4856372;29;20046;-85